Time;durP1;ratioP1;P1;durP2;ratioP2;P2;SDS_P1;SDS_P2;PMS_P1;PMS_P2;Temp;Humidity;BMP_temperature;BMP_pressure;BME280_temperature;BME280_humidity;BME280_pressure;Samples;Min_cycle;Max_cycle;Signal;HPM_P1;HPM_P2
2023/08/07 00:04:19;;;;;;;9.80;5.15;;;;;;;;;;10017613;29;20129;-87
2023/08/07 00:09:20;;;;;;;10.88;5.40;;;;;;;;;;10034159;29;20382;-88
2023/08/07 00:20:00;;;;;;;7.38;4.78;;;;;;;;;;10035146;29;20050;-87
2023/08/07 00:25:01;;;;;;;8.75;4.70;;;;;;;;;;10014732;29;20041;-87
2023/08/07 00:30:21;;;;;;;8.65;5.00;;;;;;;;;;10025439;29;20034;-86
2023/08/07 00:35:32;;;;;;;;;;;;;;;;;;;;;
2023/08/07 00:40:44;;;;;;;8.77;5.38;;;;;;;;;;10035497;29;20056;-88
2023/08/07 00:45:47;;;;;;;11.38;6.53;;;;;;;;;;10028671;29;20045;-87
2023/08/07 00:51:10;;;;;;;12.30;7.00;;;;;;;;;;10010781;29;20050;-88
2023/08/07 00:56:11;;;;;;;14.52;9.13;;;;;;;;;;10016680;29;20054;-88
2023/08/07 01:01:12;;;;;;;14.52;8.45;;;;;;;;;;10020558;29;20418;-86
2023/08/07 01:06:13;;;;;;;12.82;8.80;;;;;;;;;;10024906;29;20503;-88
2023/08/07 01:11:21;;;;;;;17.45;10.48;;;;;;;;;;10005160;29;20046;-87
2023/08/07 01:16:24;;;;;;;24.48;12.43;;;;;;;;;;10009520;29;20050;-85
2023/08/07 01:21:25;;;;;;;22.50;12.88;;;;;;;;;;10016396;29;20062;-88
2023/08/07 01:26:26;;;;;;;25.88;13.45;;;;;;;;;;10014082;29;20049;-88
2023/08/07 01:31:30;;;;;;;27.98;13.82;;;;;;;;;;10007841;29;20114;-88
2023/08/07 01:36:31;;;;;;;28.65;14.57;;;;;;;;;;10023234;29;20403;-87
2023/08/07 01:41:32;;;;;;;25.55;14.38;;;;;;;;;;10039932;29;20681;-87
2023/08/07 01:46:33;;;;;;;27.63;14.35;;;;;;;;;;9993826;29;20057;-86
2023/08/07 01:51:34;;;;;;;28.83;14.80;;;;;;;;;;10013961;29;20520;-88
2023/08/07 01:56:35;;;;;;;22.58;14.35;;;;;;;;;;10009879;29;20069;-87
2023/08/07 02:01:36;;;;;;;22.13;13.18;;;;;;;;;;10007944;29;20082;-86
2023/08/07 02:06:37;;;;;;;27.13;14.27;;;;;;;;;;10009800;29;20120;-87
2023/08/07 02:11:38;;;;;;;27.42;15.05;;;;;;;;;;9997882;29;20050;-88
2023/08/07 02:16:40;;;;;;;26.88;15.35;;;;;;;;;;10004788;29;20051;-86
2023/08/07 02:21:41;;;;;;;30.30;16.63;;;;;;;;;;9992397;29;20053;-88
2023/08/07 02:26:42;;;;;;;29.40;17.50;;;;;;;;;;9995728;29;20078;-86
2023/08/07 02:31:43;;;;;;;30.83;16.65;;;;;;;;;;10027720;29;20101;-88
2023/08/07 02:36:44;;;;;;;35.83;17.95;;;;;;;;;;10023660;29;20050;-86
2023/08/07 02:41:45;;;;;;;36.85;19.90;;;;;;;;;;10022463;29;20397;-89
2023/08/07 02:46:46;;;;;;;42.17;21.63;;;;;;;;;;10015501;29;20050;-88
2023/08/07 02:51:47;;;;;;;39.10;20.63;;;;;;;;;;10018626;29;20812;-90
2023/08/07 02:56:48;;;;;;;44.00;23.65;;;;;;;;;;10021741;29;20422;-89
2023/08/07 03:01:50;;;;;;;42.03;21.50;;;;;;;;;;10016368;29;20053;-88
2023/08/07 03:06:51;;;;;;;39.08;22.42;;;;;;;;;;10022974;29;20524;-88
2023/08/07 03:11:52;;;;;;;34.80;20.55;;;;;;;;;;10042417;29;20058;-89
2023/08/07 03:16:53;;;;;;;32.83;20.38;;;;;;;;;;10029288;29;20131;-87
2023/08/07 03:21:54;;;;;;;31.75;19.88;;;;;;;;;;10032391;29;20143;-89
2023/08/07 03:26:58;;;;;;;34.15;18.65;;;;;;;;;;10025496;29;20141;-90
2023/08/07 03:31:59;;;;;;;29.25;18.10;;;;;;;;;;10020723;29;20561;-88
2023/08/07 03:37:01;;;;;;;26.08;16.55;;;;;;;;;;10022488;29;20136;-83
2023/08/07 03:42:02;;;;;;;27.65;16.73;;;;;;;;;;10045892;29;20053;-84
2023/08/07 03:47:03;;;;;;;24.42;13.55;;;;;;;;;;10041661;29;20073;-88
2023/08/07 03:52:04;;;;;;;21.25;13.00;;;;;;;;;;10021500;29;20075;-89
2023/08/07 03:57:05;;;;;;;18.88;12.07;;;;;;;;;;10048367;29;20046;-86
2023/08/07 04:02:06;;;;;;;18.63;12.35;;;;;;;;;;10033622;29;20068;-88
2023/08/07 04:07:07;;;;;;;18.90;12.13;;;;;;;;;;10016254;29;20072;-88
2023/08/07 04:12:09;;;;;;;23.70;13.23;;;;;;;;;;10029175;29;20052;-88
2023/08/07 04:17:11;;;;;;;25.42;16.25;;;;;;;;;;10024174;29;20075;-86
2023/08/07 04:22:12;;;;;;;36.17;21.40;;;;;;;;;;10028948;29;20482;-87
2023/08/07 04:27:13;;;;;;;38.13;22.08;;;;;;;;;;10044946;29;20482;-88
2023/08/07 04:32:14;;;;;;;40.00;22.88;;;;;;;;;;10045771;29;20101;-88
2023/08/07 04:37:15;;;;;;;39.05;22.60;;;;;;;;;;10017951;29;20077;-88
2023/08/07 04:42:16;;;;;;;35.05;21.23;;;;;;;;;;10032708;29;20045;-90
2023/08/07 04:47:17;;;;;;;26.83;16.08;;;;;;;;;;10030389;29;20512;-92
2023/08/07 04:52:18;;;;;;;16.30;10.98;;;;;;;;;;10034595;29;20075;-88
2023/08/07 04:57:19;;;;;;;14.75;9.40;;;;;;;;;;10015310;29;20044;-89
2023/08/07 05:02:20;;;;;;;10.68;7.90;;;;;;;;;;10050117;29;20057;-90
2023/08/07 05:07:21;;;;;;;10.20;6.90;;;;;;;;;;10033327;29;20038;-91
2023/08/07 05:12:23;;;;;;;7.82;6.15;;;;;;;;;;10025287;29;20045;-90
2023/08/07 05:17:24;;;;;;;9.30;6.63;;;;;;;;;;10030088;29;20053;-88
2023/08/07 05:22:25;;;;;;;7.10;6.03;;;;;;;;;;10020426;29;20387;-87
2023/08/07 05:27:26;;;;;;;6.85;5.55;;;;;;;;;;10016142;29;20041;-88
2023/08/07 05:32:27;;;;;;;10.85;6.97;;;;;;;;;;10022653;29;20113;-90
2023/08/07 05:37:29;;;;;;;8.18;6.80;;;;;;;;;;10014643;29;20124;-90
2023/08/07 05:42:32;;;;;;;9.75;7.50;;;;;;;;;;10017173;29;20057;-88
2023/08/07 05:47:33;;;;;;;8.75;5.78;;;;;;;;;;10044085;29;20406;-89
2023/08/07 05:52:34;;;;;;;5.40;4.47;;;;;;;;;;10034629;29;20130;-90
2023/08/07 05:57:35;;;;;;;5.65;4.55;;;;;;;;;;10044601;29;20132;-91
2023/08/07 06:02:36;;;;;;;5.65;4.20;;;;;;;;;;10019614;29;20086;-88
2023/08/07 06:07:37;;;;;;;4.13;2.90;;;;;;;;;;10036768;29;20049;-90
2023/08/07 06:12:39;;;;;;;3.15;2.33;;;;;;;;;;10036282;29;20064;-90
2023/08/07 06:17:41;;;;;;;2.83;2.28;;;;;;;;;;10029274;29;20147;-92
2023/08/07 06:22:42;;;;;;;5.45;3.35;;;;;;;;;;10026507;29;20048;-90
2023/08/07 06:27:43;;;;;;;4.72;2.13;;;;;;;;;;10026791;29;20060;-90
2023/08/07 06:32:44;;;;;;;23.60;11.07;;;;;;;;;;10027075;29;20174;-93
2023/08/07 06:37:45;;;;;;;6.50;4.72;;;;;;;;;;10020491;29;20069;-89
2023/08/07 06:42:46;;;;;;;5.93;4.00;;;;;;;;;;10006340;29;20073;-89
2023/08/07 06:47:47;;;;;;;5.78;4.38;;;;;;;;;;10021943;29;20045;-86
2023/08/07 06:52:48;;;;;;;8.15;5.20;;;;;;;;;;10019705;29;20787;-88
2023/08/07 06:57:49;;;;;;;7.60;6.40;;;;;;;;;;10029314;29;20077;-86
2023/08/07 07:02:50;;;;;;;12.63;8.65;;;;;;;;;;10014096;29;20586;-87
2023/08/07 07:07:51;;;;;;;13.57;9.23;;;;;;;;;;10018179;29;20029;-85
2023/08/07 07:12:52;;;;;;;8.70;7.35;;;;;;;;;;10028409;29;20077;-85
2023/08/07 07:17:53;;;;;;;9.70;7.07;;;;;;;;;;10037843;29;20561;-85
2023/08/07 07:22:54;;;;;;;8.52;6.95;;;;;;;;;;10032012;29;20125;-86
2023/08/07 07:27:55;;;;;;;7.72;6.00;;;;;;;;;;10040993;29;20421;-91
2023/08/07 07:32:56;;;;;;;7.18;5.95;;;;;;;;;;10032736;29;20066;-89
2023/08/07 07:37:57;;;;;;;9.95;7.22;;;;;;;;;;10042997;29;20683;-88
2023/08/07 07:42:58;;;;;;;10.30;6.47;;;;;;;;;;10021070;29;20041;-88
2023/08/07 07:48:00;;;;;;;6.95;6.07;;;;;;;;;;10021545;29;20492;-89
2023/08/07 07:53:01;;;;;;;6.57;5.65;;;;;;;;;;10029683;29;20069;-89
2023/08/07 07:58:02;;;;;;;5.53;4.93;;;;;;;;;;10033880;29;20064;-88
2023/08/07 08:03:03;;;;;;;6.53;5.38;;;;;;;;;;10047847;29;20046;-88
2023/08/07 08:08:07;;;;;;;7.13;5.25;;;;;;;;;;10028910;29;20109;-91
2023/08/07 08:13:11;;;;;;;7.03;5.57;;;;;;;;;;10031565;29;20077;-89
2023/08/07 08:18:12;;;;;;;5.07;4.43;;;;;;;;;;10006867;29;20066;-89
2023/08/07 08:23:13;;;;;;;5.68;3.92;;;;;;;;;;9998165;29;20106;-91
2023/08/07 08:28:15;;;;;;;4.70;3.85;;;;;;;;;;10014623;29;20194;-92
2023/08/07 08:33:17;;;;;;;5.00;3.42;;;;;;;;;;10021957;29;20132;-91
2023/08/07 08:38:19;;;;;;;3.58;2.78;;;;;;;;;;10019254;29;20084;-90
2023/08/07 08:43:21;;;;;;;2.85;2.50;;;;;;;;;;10031601;29;20068;-89
2023/08/07 08:48:23;;;;;;;2.17;2.05;;;;;;;;;;10036594;29;20045;-90
2023/08/07 08:53:24;;;;;;;2.55;2.22;;;;;;;;;;10031300;29;20045;-90
2023/08/07 08:58:25;;;;;;;3.05;2.28;;;;;;;;;;10021020;29;20049;-87
2023/08/07 09:03:26;;;;;;;2.85;1.92;;;;;;;;;;10021582;29;20041;-87
2023/08/07 09:08:32;;;;;;;2.33;1.90;;;;;;;;;;10038980;29;20804;-89
2023/08/07 09:13:34;;;;;;;2.58;2.28;;;;;;;;;;10018970;29;20038;-92
2023/08/07 09:18:35;;;;;;;1.83;1.63;;;;;;;;;;10021205;29;20125;-89
2023/08/07 09:23:36;;;;;;;2.42;2.22;;;;;;;;;;10012388;29;20045;-90
2023/08/07 09:28:38;;;;;;;3.60;1.70;;;;;;;;;;10026004;29;20495;-91
2023/08/07 09:33:40;;;;;;;2.70;1.85;;;;;;;;;;10019292;29;20168;-91
2023/08/07 09:38:42;;;;;;;3.65;2.33;;;;;;;;;;10018700;29;20088;-88
2023/08/07 09:43:43;;;;;;;3.78;1.70;;;;;;;;;;10021096;29;20386;-90
2023/08/07 09:48:44;;;;;;;2.53;1.73;;;;;;;;;;10011963;29;20584;-89
2023/08/07 09:53:47;;;;;;;8.27;5.43;;;;;;;;;;10034224;29;20529;-88
2023/08/07 09:58:49;;;;;;;3.80;3.08;;;;;;;;;;10035635;29;20110;-90
2023/08/07 10:03:50;;;;;;;3.97;2.20;;;;;;;;;;10027289;29;20185;-90
2023/08/07 10:08:52;;;;;;;4.43;2.38;;;;;;;;;;10013413;29;20050;-85
2023/08/07 10:13:54;;;;;;;5.57;2.88;;;;;;;;;;10024425;29;20049;-88
2023/08/07 10:18:55;;;;;;;7.47;3.70;;;;;;;;;;10019564;29;20057;-87
2023/08/07 10:23:57;;;;;;;3.95;2.92;;;;;;;;;;10047524;29;20090;-89
2023/08/07 10:29:00;;;;;;;5.00;3.53;;;;;;;;;;10021541;29;20120;-87
2023/08/07 10:34:02;;;;;;;5.32;2.92;;;;;;;;;;10018417;29;20041;-88
2023/08/07 10:39:07;;;;;;;4.68;2.67;;;;;;;;;;10016168;29;20061;-87
2023/08/07 10:44:42;;;;;;;6.72;3.85;;;;;;;;;;10028886;29;20052;-89
2023/08/07 11:05:51;;;;;;;16.35;7.28;;;;;;;;;;11290049;24;20688;-91
2023/08/07 11:10:52;;;;;;;15.23;8.15;;;;;;;;;;10041568;29;20401;-91
2023/08/07 11:32:43;;;;;;;16.58;8.05;;;;;;;;;;10524669;24;20065;-91
2023/08/07 11:37:50;;;;;;;14.68;7.57;;;;;;;;;;10030799;29;20111;-90
2023/08/07 11:42:51;;;;;;;13.88;7.10;;;;;;;;;;10036381;29;20581;-90
2023/08/07 11:53:35;;;;;;;13.38;7.57;;;;;;;;;;10436329;24;20061;-88
2023/08/07 12:04:18;;;;;;;13.23;7.43;;;;;;;;;;10031243;29;20595;-87
2023/08/07 12:09:19;;;;;;;11.95;6.63;;;;;;;;;;9997000;29;20046;-84
2023/08/07 12:14:51;;;;;;;9.32;5.55;;;;;;;;;;10023574;29;20040;-85
2023/08/07 12:20:26;;;;;;;10.07;5.82;;;;;;;;;;10031920;29;20057;-86
2023/08/07 12:25:43;;;;;;;10.35;5.13;;;;;;;;;;10017119;29;20077;-86
2023/08/07 12:30:46;;;;;;;10.70;4.55;;;;;;;;;;10017542;29;20102;-86
2023/08/07 12:35:47;;;;;;;9.07;4.50;;;;;;;;;;10049551;29;20045;-87
2023/08/07 12:40:48;;;;;;;8.13;4.47;;;;;;;;;;10006711;29;20126;-87
2023/08/07 12:45:50;;;;;;;8.77;5.13;;;;;;;;;;10023530;29;20042;-87
2023/08/07 12:50:51;;;;;;;8.35;5.00;;;;;;;;;;10040908;29;20187;-86
2023/08/07 12:55:52;;;;;;;12.30;6.55;;;;;;;;;;10039879;29;20038;-86
2023/08/07 13:00:53;;;;;;;6.05;4.63;;;;;;;;;;10011308;29;20570;-87
2023/08/07 13:05:54;;;;;;;11.65;5.88;;;;;;;;;;10011376;29;20041;-87
2023/08/07 13:10:55;;;;;;;9.05;6.10;;;;;;;;;;10029508;29;20034;-87
2023/08/07 13:16:21;;;;;;;6.00;4.45;;;;;;;;;;10034572;29;20038;-87
2023/08/07 13:21:22;;;;;;;7.22;5.00;;;;;;;;;;10035454;29;20042;-88
2023/08/07 13:32:04;;;;;;;6.55;4.45;;;;;;;;;;10054686;29;20124;-87
2023/08/07 13:37:06;;;;;;;7.63;3.90;;;;;;;;;;10019332;29;20041;-88
2023/08/07 13:42:14;;;;;;;6.10;4.22;;;;;;;;;;10030804;29;20045;-89
2023/08/07 13:52:57;;;;;;;8.77;5.40;;;;;;;;;;10040876;29;20060;-87
2023/08/07 13:57:58;;;;;;;7.38;5.15;;;;;;;;;;10032291;29;20045;-87
2023/08/07 14:20:20;;;;;;;12.48;6.75;;;;;;;;;;10041405;29;20068;-88
2023/08/07 14:31:00;;;;;;;8.15;5.85;;;;;;;;;;10004092;29;20069;-87
2023/08/07 14:53:24;;;;;;;4.47;3.00;;;;;;;;;;10788453;24;20069;-88
2023/08/07 14:58:35;;;;;;;7.80;3.75;;;;;;;;;;10029947;29;20468;-87
2023/08/07 15:03:42;;;;;;;4.70;3.25;;;;;;;;;;10036427;29;20586;-86
2023/08/07 15:08:43;;;;;;;6.22;4.22;;;;;;;;;;10036148;29;20049;-86
2023/08/07 15:13:44;;;;;;;6.53;3.95;;;;;;;;;;10037264;29;20414;-86
2023/08/07 15:18:45;;;;;;;8.60;4.43;;;;;;;;;;10051990;29;20569;-85
2023/08/07 15:29:28;;;;;;;9.60;5.75;;;;;;;;;;10032227;29;20049;-84
2023/08/07 15:34:32;;;;;;;12.23;6.22;;;;;;;;;;10043760;29;20292;-87
2023/08/07 15:39:36;;;;;;;8.68;5.85;;;;;;;;;;10010767;29;20158;-84
2023/08/07 15:50:38;;;;;;;6.25;4.22;;;;;;;;;;10036584;29;20050;-85
2023/08/07 15:55:39;;;;;;;5.43;3.60;;;;;;;;;;10049394;29;20098;-86
2023/08/07 16:00:58;;;;;;;5.70;3.67;;;;;;;;;;10017408;29;20760;-85
2023/08/07 16:17:32;;;;;;;6.10;3.58;;;;;;;;;;10023677;29;20026;-87
2023/08/07 16:22:34;;;;;;;6.28;3.10;;;;;;;;;;10022186;29;20517;-87
2023/08/07 16:27:45;;;;;;;5.68;3.40;;;;;;;;;;10021327;29;20042;-85
2023/08/07 16:32:46;;;;;;;5.90;4.20;;;;;;;;;;10025166;29;20124;-85
2023/08/07 16:37:47;;;;;;;4.95;3.70;;;;;;;;;;10021648;29;20045;-85
2023/08/07 16:42:48;;;;;;;8.32;4.10;;;;;;;;;;10043005;29;20050;-88
2023/08/07 16:47:49;;;;;;;5.57;3.90;;;;;;;;;;10024986;29;20100;-87
2023/08/07 16:52:50;;;;;;;7.72;4.05;;;;;;;;;;10022718;29;20097;-89
2023/08/07 16:57:51;;;;;;;10.70;4.40;;;;;;;;;;10021475;29;20072;-88
2023/08/07 17:02:52;;;;;;;8.13;4.47;;;;;;;;;;10020140;29;20110;-90
2023/08/07 17:07:54;;;;;;;6.60;4.40;;;;;;;;;;10029780;29;20045;-88
2023/08/07 17:12:55;;;;;;;7.10;4.30;;;;;;;;;;10020149;29;20077;-89
2023/08/07 17:17:57;;;;;;;5.60;4.05;;;;;;;;;;10018345;29;20034;-87
2023/08/07 17:22:58;;;;;;;6.18;3.80;;;;;;;;;;10021989;29;20077;-87
2023/08/07 17:27:59;;;;;;;9.85;5.18;;;;;;;;;;10022699;29;20441;-87
2023/08/07 17:33:00;;;;;;;7.68;5.00;;;;;;;;;;10012292;29;20030;-85
2023/08/07 17:38:28;;;;;;;8.82;5.15;;;;;;;;;;10015748;29;20128;-87
2023/08/07 17:54:50;;;;;;;5.47;4.05;;;;;;;;;;10036820;29;20049;-87
2023/08/07 17:59:51;;;;;;;5.78;3.92;;;;;;;;;;10047630;29;20112;-88
2023/08/07 18:04:52;;;;;;;7.13;4.75;;;;;;;;;;10046405;29;20042;-86
2023/08/07 18:09:53;;;;;;;7.57;4.93;;;;;;;;;;10048337;29;20041;-84
2023/08/07 18:14:56;;;;;;;12.15;6.82;;;;;;;;;;10047677;29;20080;-85
2023/08/07 18:20:00;;;;;;;14.13;9.45;;;;;;;;;;10027483;29;20148;-87
2023/08/07 18:25:01;;;;;;;17.88;9.82;;;;;;;;;;10027257;29;20045;-85
2023/08/07 18:30:03;;;;;;;14.50;8.30;;;;;;;;;;10028404;29;20045;-86
2023/08/07 18:35:04;;;;;;;17.48;10.63;;;;;;;;;;10029503;29;20132;-88
2023/08/07 18:40:06;;;;;;;15.13;9.70;;;;;;;;;;10023370;29;20053;-86
2023/08/07 18:45:08;;;;;;;19.90;11.10;;;;;;;;;;10028813;29;20053;-88
2023/08/07 18:50:09;;;;;;;20.50;12.90;;;;;;;;;;10029036;29;20070;-85
2023/08/07 18:55:12;;;;;;;21.92;12.70;;;;;;;;;;10028355;29;20053;-87
2023/08/07 19:00:14;;;;;;;19.95;11.32;;;;;;;;;;10023513;29;20062;-89
2023/08/07 19:05:15;;;;;;;20.98;10.13;;;;;;;;;;10028697;29;20034;-85
2023/08/07 19:10:17;;;;;;;12.70;8.68;;;;;;;;;;10045549;29;20045;-90
2023/08/07 19:15:18;;;;;;;12.60;8.68;;;;;;;;;;10028017;29;20041;-89
2023/08/07 19:36:50;;;;;;;15.68;9.07;;;;;;;;;;11284435;24;20017;-89
2023/08/07 19:53:29;;;;;;;14.23;8.13;;;;;;;;;;9964989;29;20087;-87
2023/08/07 20:27:00;;;;;;;6.60;4.28;;;;;;;;;;9891716;29;20043;-87
2023/08/07 20:42:50;;;;;;;3.80;3.10;;;;;;;;;;9971339;29;20069;-87
2023/08/07 21:21:30;;;;;;;8.23;4.63;;;;;;;;;;10136875;24;20065;-87
2023/08/07 21:26:40;;;;;;;7.45;4.25;;;;;;;;;;10010324;29;20056;-88
2023/08/07 21:37:20;;;;;;;4.35;3.17;;;;;;;;;;11037133;24;20144;-90
2023/08/07 21:42:23;;;;;;;4.97;3.28;;;;;;;;;;10022021;29;20072;-88
2023/08/07 22:03:26;;;;;;;6.28;2.90;;;;;;;;;;10014975;29;20046;-89
2023/08/07 22:14:06;;;;;;;7.82;3.83;;;;;;;;;;10004165;29;20038;-88
2023/08/07 22:19:09;;;;;;;6.18;3.28;;;;;;;;;;10002502;29;20052;-92
2023/08/07 22:29:52;;;;;;;4.38;3.03;;;;;;;;;;10021728;24;20612;-87
2023/08/07 22:45:52;;;;;;;9.25;4.00;;;;;;;;;;10004193;29;20046;-86
2023/08/07 22:50:53;;;;;;;6.05;3.63;;;;;;;;;;10006537;29;20070;-88
2023/08/07 22:55:55;;;;;;;6.82;3.72;;;;;;;;;;10005408;29;20174;-88
2023/08/07 23:00:56;;;;;;;6.22;3.67;;;;;;;;;;10005779;29;20321;-87
2023/08/07 23:05:57;;;;;;;7.35;3.38;;;;;;;;;;10009022;29;20076;-88
2023/08/07 23:10:58;;;;;;;6.88;3.58;;;;;;;;;;10007134;29;20509;-88
2023/08/07 23:15:59;;;;;;;6.07;3.60;;;;;;;;;;10001744;29;20061;-88
2023/08/07 23:21:00;;;;;;;8.85;3.80;;;;;;;;;;10010348;29;20542;-89
2023/08/07 23:26:01;;;;;;;7.15;3.42;;;;;;;;;;9976400;29;20048;-88
2023/08/07 23:31:02;;;;;;;4.43;3.05;;;;;;;;;;9975942;29;20057;-88
2023/08/07 23:36:04;;;;;;;6.63;3.10;;;;;;;;;;9975208;29;20424;-87
2023/08/07 23:41:05;;;;;;;6.13;3.60;;;;;;;;;;9977344;29;20053;-90
2023/08/07 23:46:06;;;;;;;5.07;3.22;;;;;;;;;;9966073;29;20049;-89
2023/08/07 23:51:07;;;;;;;11.52;3.25;;;;;;;;;;9974895;29;20053;-89
2023/08/07 23:56:14;;;;;;;7.35;3.10;;;;;;;;;;9961459;29;20061;-91
